Messwerte Douala

Temperatur

Temperatur
°C
1623592800 15.00 15.00 31
1623596400 16.00 16.00 30
1623600000 17.00 17.00 29
1623603600 18.00 18.00 29
1623607200 19.00 19.00 28
1623610800 20.00 20.00 27
1623614400 21.00 21.00
1623618000 22.00 22.00 27
1623621600 23.00 23.00 27
1623625200 0.00 0.00
1623628800 1.00 1.00 27
1623632400 2.00 2.00 27
1623636000 3.00 3.00 27
1623639600 4.00 4.00 27
1623643200 5.00 5.00 27
1623646800 6.00 6.00 26
1623650400 7.00 7.00 26
1623654000 8.00 8.00 27
1623657600 9.00 9.00 29
1623661200 10.00 10.00 29
1623664800 11.00 11.00 29
1623668400 12.00 12.00 31
1623672000 13.00 13.00 31
1623675600 14.00 14.00 31

Aktuellste Messwerte

Wettercharakter
Wetter: wechselnd bewölkt
Temperatur
31 °C
Feuchtigkeit
75 %
Wind
15 km/hWindrichtung: Südwest
Luftdruck
1011 hPa
Messzeit: 14. Juni 2021, 14.00Datenquelle: METAR

Weitere Messstationen in der Nähe

Messstation Temperatur Entfernung
Malabo 31 °C 110 km
Yaoundé 31 °C 199 km
Bata 30 °C 233 km
Port Harcourt 28 °C 328 km
Libreville 30 °C 396 km

Wind

Windrichtung Böen Mittelwind
° km/h km/h
1623592800 15.00 14.00 - 15.00 270° 10
1623596400 16.00 15.00 - 16.00 5
1623600000 17.00 16.00 - 17.00 200° 5
1623603600 18.00 17.00 - 18.00 5
1623607200 19.00 18.00 - 19.00 5
1623610800 20.00 19.00 - 20.00 5
1623614400 21.00 20.00 - 21.00
1623618000 22.00 21.00 - 22.00 5
1623621600 23.00 22.00 - 23.00 270° 5
1623625200 0.00 23.00 - 0.00
1623628800 1.00 0.00 - 1.00 5
1623632400 2.00 1.00 - 2.00 5
1623636000 3.00 2.00 - 3.00 5
1623639600 4.00 3.00 - 4.00 290° 10
1623643200 5.00 4.00 - 5.00 5
1623646800 6.00 5.00 - 6.00 5
1623650400 7.00 6.00 - 7.00 0
1623654000 8.00 7.00 - 8.00 5
1623657600 9.00 8.00 - 9.00 5
1623661200 10.00 9.00 - 10.00 220° 5
1623664800 11.00 10.00 - 11.00 220° 10
1623668400 12.00 11.00 - 12.00 250° 10
1623672000 13.00 12.00 - 13.00 260° 10
1623675600 14.00 13.00 - 14.00 230° 15

Ihre Wetterstation

Fehlt Ihre Wetterstation auf unserem Portal?

Schreiben Sie an network@meteonews.ch